Kalmar, Sweden

3:02 PM CET on November 28, 2014 (GMT +0100)
Kalmar | Change Station
CLOSE
Current Station
Airport
Location: Kalmar,
Elevation: 52 ft
Nearby Weather Stations

Elev 52 ft 56.73 °N, 16.30 °E | Updated 12 minutes ago

Mostly Cloudy
Mostly Cloudy
34 °F
Feels Like 26 °F
N
10
Wind Variable Wind from East

Today
High -- | Low -- °F
--% Chance of Precip.
Yesterday
High -- | Low -- °F
Precip. -- in
8:00 AM 3:24 PM
Waxing Crescent, 40% visible
Pressure 30.39 in
Visibility 6.2 miles
Clouds Mostly Cloudy 1700 ft
Windchill 26 °F
Dew Point 28 °F
Humidity 81%
Rainfall 0.00 in
Snow Depth Not available.
UV 0 out of 12
Pollen Not available.
Air Quality Not available.
Flu Activity Not available.
METAR ESMQ 281350Z 08009KT 9999 BKN017 01/M02 Q1029

More Conditions Fewer Conditions

Pressure 30.39 in
Visibility 6.2 miles
Clouds Mostly Cloudy 1700 ft
Windchill 26 °F
Dew Point 28 °F
Humidity 81%
Rainfall 0.00 in
Snow Depth Not available.
UV 0 out of 12
Pollen Not available.
Air Quality Not available.
Flu Activity Not available.
METAR ESMQ 281350Z 08009KT 9999 BKN017 01/M02 Q1029

More Conditions Fewer Conditions

10-Day Weather Forecast

Almanac

Astronomy

Nov. 28, 2014 Rise Set
Actual Time
Civil Twilight
Nautical Twilight
Astronomical Twilight
Moon
Length of Visible Light
Length of Day
Tomorrow will be .
, % of the Moon is Illuminated

Today's Extremes

Country Highs Country Lows

Community

WunderPhotos

Upload Photos

1,774,211 photos uploaded!

WunderBlogs® & News

Nearby

Air Quality

  Air Quality AQ Index Pollutant
Not available.

Snow Depth

Station Depth Elevation

Earthquake Activity

City Distance Mag. Time & Date
Minimum magnitude displayed is 2.5.

Coastal Water Temperatures

Place Temperature

Nearby Weather Stations